CDT,Max TemperatureF,Mean TemperatureF,Min TemperatureF,Max Dew PointF,MeanDew PointF,Min DewpointF,Max Humidity, Mean Humidity, Min Humidity, Max Sea Level PressureIn, Mean Sea Level PressureIn, Min Sea Level PressureIn, Max VisibilityMiles, Mean VisibilityMiles, Min VisibilityMiles, Max Wind SpeedMPH, Mean Wind SpeedMPH, Max Gust SpeedMPH,PrecipitationIn, CloudCover, Events, WindDirDegrees
2012-9-1,82,62,42,48,42,37,93,53,21,30.21,30.14,30.03,10,10,10,13,2,21,0.00,0,,141
2012-9-2,80,68,57,61,51,45,77,55,30,30.03,29.90,29.80,10,10,10,15,4,23,0.00,0,,150
2012-9-3,87,71,55,61,49,32,94,55,14,29.90,29.86,29.81,10,9,0,8,0,,0.00,0,Fog,245
2012-9-4,86,67,48,63,52,45,94,72,23,29.89,29.80,29.69,10,10,0,12,0,32,0.58,1,Rain-Thunderstorm,82
2012-9-5,73,62,51,54,49,43,88,66,33,29.82,29.78,29.72,10,10,7,16,3,28,0.01,2,Rain,286
2012-9-6,64,55,46,52,48,45,94,78,55,29.92,29.87,29.81,10,10,10,9,1,16,0.00,3,Rain,272
2012-9-7,60,53,46,52,46,43,100,82,55,29.98,29.94,29.90,10,10,4,16,3,21,0.01,2,Rain,302
2012-9-8,57,50,42,52,46,39,93,85,67,30.02,29.87,29.75,10,10,4,17,2,23,0.05,3,Rain,312
2012-9-9,66,55,44,48,45,43,94,73,43,30.16,30.09,30.02,10,10,7,7,0,,0.00,0,,320
2012-9-10,78,62,46,46,45,43,87,58,28,30.02,29.85,29.70,10,10,10,16,5,28,0.00,0,,161
2012-9-11,80,68,55,55,50,36,77,54,37,29.83,29.70,29.62,10,10,10,9,5,20,0.00,0,,167
2012-9-12,68,60,53,39,29,19,54,34,16,30.11,29.98,29.84,10,10,10,18,4,32,0.00,0,,261
2012-9-13,64,52,39,39,32,25,81,49,24,30.30,30.22,30.11,10,10,10,16,3,23,0.00,0,,299
2012-9-14,64,47,30,48,36,28,100,70,30,30.35,30.30,30.25,10,9,0,5,0,,0.00,1,Fog,316
2012-9-15,75,58,41,46,39,36,87,55,24,30.25,30.07,29.88,10,10,10,10,3,17,0.00,0,,133
2012-9-16,69,53,37,48,41,36,93,62,28,29.97,29.90,29.83,10,10,10,13,2,18,0.00,1,,310
2012-9-17,53,44,35,37,32,23,87,57,33,30.00,29.97,29.94,10,10,10,10,2,17,0.00,3,Rain,310
2012-9-18,55,40,24,34,26,18,100,60,23,29.99,29.92,29.78,10,10,10,6,1,,0.00,0,,236
2012-9-19,60,52,44,48,39,30,93,69,50,29.76,29.58,29.48,10,10,5,16,10,29,0.07,5,Rain,242
2012-9-20,57,48,39,45,41,34,93,78,41,29.79,29.74,29.65,10,10,3,22,9,32,0.02,4,Rain,302
2012-9-21,51,43,35,39,37,34,93,84,50,29.81,29.76,29.68,10,9,3,16,4,31,0.13,4,Rain,299
2012-9-22,48,42,33,37,32,25,93,71,40,30.16,30.08,29.82,10,10,3,16,6,23,0.01,5,Rain,317
2012-9-23,55,42,28,32,28,25,100,64,33,30.23,30.15,29.99,10,10,10,10,2,,0.00,0,,288
2012-9-24,66,50,35,36,30,25,87,51,26,29.98,29.76,29.63,10,10,10,18,5,25,0.00,0,,256
2012-9-25,53,40,26,39,33,27,100,79,41,29.98,29.91,29.85,10,10,10,8,1,,0.00,4,,310
2012-9-26,57,44,30,39,33,28,100,73,33,30.19,30.10,29.98,10,10,10,6,0,,0.00,3,,314
2012-9-27,66,49,32,36,32,27,93,59,23,30.24,30.18,30.13,10,10,10,6,0,,0.00,0,,251
2012-9-28,73,53,33,43,35,28,93,56,19,30.16,30.11,30.05,10,10,10,4,0,,0.00,0,,130
2012-9-29,75,54,32,43,37,30,93,60,22,30.13,30.07,30.02,10,10,10,5,0,,0.00,0,,135
2012-9-30,77,60,42,41,36,28,76,48,20,30.03,29.92,29.81,10,10,10,10,4,,0.00,0,,154